ADDS METAR Data INFO
IDs: Format: Raw Decoded Include TAF

Data at: 0114 UTC 21 Oct 2017

KATL 210052Z 00000KT 10SM BKN250 19/08 A3021 RMK AO2 SLP227 T01890078
KATL 202352Z 00000KT 10SM BKN250 21/07 A3020 RMK AO2 SLP224 T02060067 10267 20206 53002
KATL 202252Z 13003KT 10SM BKN250 23/03 A3019 RMK AO2 SLP219 T02280033
KATL 202152Z 14005KT 10SM SCT250 25/02 A3018 RMK AO2 SLP215 T02500022
KATL 202052Z 14006KT 10SM SCT250 26/M04 A3019 RMK AO2 SLP219 T02611039 56017
KATL 201952Z 11008KT 10SM SCT250 26/02 A3020 RMK AO2 SLP221 T02610017
KATL 201852Z 04004KT 10SM SCT250 26/02 A3022 RMK AO2 SLP228 T02610017
KATL 201752Z VRB03KT 10SM FEW250 25/03 A3025 RMK AO2 SLP237 T02500028 10250 20100 58018
KATL 201652Z 08003KT 10SM FEW250 23/06 A3028 RMK AO2 SLP248 T02330056
KATL 201552Z 00000KT 10SM FEW250 22/08 A3029 RMK AO2 SLP253 T02170083
KATL 201452Z 27003KT 10SM FEW010 SCT250 19/08 A3030 RMK AO2 SLP257 FU FEW010 T01940083 51006
KATL 201352Z 29003KT 10SM FEW010 FEW250 17/09 A3030 RMK AO2 SLP256 FU FEW010 T01720089
KATL 201252Z 00000KT 10SM FEW007 FEW200 SCT250 13/09 A3029 RMK AO2 SLP256 FU FEW007 T01280094
KATL 201152Z 31003KT 10SM FEW003 FEW200 SCT250 11/07 A3028 RMK AO2 SLP252 FU FEW003 T01060072 10128 20094 51011
KATL 201052Z 00000KT 10SM FEW250 11/08 A3027 RMK AO2 SLP249 T01060078
KATL 200952Z 31005KT 10SM FEW200 09/07 A3026 RMK AO2 SLP244 T00940072
KATL 200852Z 35003KT 10SM FEW200 10/08 A3025 RMK AO2 SLP239 T01000078 58001
KATL 200752Z 00000KT 10SM FEW200 11/08 A3025 RMK AO2 SLP240 T01110083
KATL 200652Z 00000KT 10SM CLR 12/08 A3026 RMK AO2 SLP242 T01170083
KATL 200552Z 00000KT 10SM CLR 13/08 A3025 RMK AO2 SLP240 T01280083 10194 20122 57003
KATL 200452Z 00000KT 10SM CLR 14/08 A3025 RMK AO2 SLP241 T01390078 402500100
KATL 200352Z 00000KT 10SM CLR 16/08 A3026 RMK AO2 SLP243 T01560078
KATL 200252Z 00000KT 10SM CLR 16/08 A3026 RMK AO2 SLP244 T01560078 53007
KATL 200152Z 00000KT 10SM FEW250 17/08 A3025 RMK AO2 SLP240 T01670078
KATL 200052Z 00000KT 10SM FEW250 18/06 A3025 RMK AO2 SLP241 T01830056
KATL 192352Z 00000KT 10SM FEW250 19/05 A3024 RMK AO2 SLP238 T01940050 10250 20194 53002
KATL 192252Z 34006KT 10SM FEW250 22/03 A3023 RMK AO2 SLP233 T02220033
KATL 192152Z COR 35006KT 10SM FEW250 23/05 A3022 RMK AO2 SLP231 T02330050
KATL 192052Z 36005KT 10SM FEW250 24/04 A3023 RMK AO2 SLP234 T02440039 56017
KATL 191952Z VRB04KT 10SM FEW250 24/04 A3024 RMK AO2 SLP237 T02390044
KATL 191852Z 00000KT 10SM FEW250 23/05 A3025 RMK AO2 SLP241 T02330050
KATL 191752Z 08004KT 10SM FEW250 22/05 A3029 RMK AO2 SLP253 T02170050 10217 20106 58016
KATL 191652Z 02004KT 10SM FEW250 21/06 A3031 RMK AO2 SLP263 T02060061
KATL 191552Z 09005KT 10SM FEW250 19/06 A3033 RMK AO2 SLP268 T01890056
KATL 191452Z 08007KT 10SM SCT180 SCT250 17/06 A3034 RMK AO2 SLP271 T01670056 51015
KATL 191352Z 07006KT 10SM FEW180 FEW250 15/06 A3033 RMK AO2 SLP269 T01500061